MGGT - La Aurora Intl.
MGGT 050400Z 16008KT 8000 SKC 18/15 Q1020 A3012 HZ
Observed:
Wind:
visibility:
Flight Rules:
Cloud Levels:
Temperature:
Humidity:
Pressure: